sensor_id;sensor_type;location;lat;lon;timestamp;pressure;altitude;pressure_sealevel;temperature;humidity
56504;BME280;48812;51.606;-0.114;2023-04-24T00:00:08;99870.19;;;17.94;57.70
56504;BME280;48812;51.606;-0.114;2023-04-24T00:02:48;99869.34;;;17.94;58.28
56504;BME280;48812;51.606;-0.114;2023-04-24T00:05:21;99872.09;;;17.92;58.22
56504;BME280;48812;51.606;-0.114;2023-04-24T00:07:53;99871.25;;;17.92;57.67
56504;BME280;48812;51.606;-0.114;2023-04-24T00:10:27;99880.13;;;17.92;57.74
56504;BME280;48812;51.606;-0.114;2023-04-24T00:13:01;99880.22;;;17.91;57.59
56504;BME280;48812;51.606;-0.114;2023-04-24T00:15:34;99885.56;;;17.91;57.88
56504;BME280;48812;51.606;-0.114;2023-04-24T00:18:06;99889.19;;;17.90;57.45
56504;BME280;48812;51.606;-0.114;2023-04-24T00:20:38;99894.63;;;17.88;57.72
56504;BME280;48812;51.606;-0.114;2023-04-24T00:23:11;99895.59;;;17.87;57.57
56504;BME280;48812;51.606;-0.114;2023-04-24T00:25:44;99890.25;;;17.87;58.32
56504;BME280;48812;51.606;-0.114;2023-04-24T00:28:17;99899.22;;;17.86;57.58
56504;BME280;48812;51.606;-0.114;2023-04-24T00:30:49;99900.19;;;17.85;57.71
56504;BME280;48812;51.606;-0.114;2023-04-24T00:33:21;99902.88;;;17.85;57.92
56504;BME280;48812;51.606;-0.114;2023-04-24T00:35:55;99913.66;;;17.83;57.49
56504;BME280;48812;51.606;-0.114;2023-04-24T00:38:28;99916.44;;;17.82;58.02
56504;BME280;48812;51.606;-0.114;2023-04-24T00:41:00;99916.44;;;17.82;57.69
56504;BME280;48812;51.606;-0.114;2023-04-24T00:43:33;99912.03;;;17.81;57.72
56504;BME280;48812;51.606;-0.114;2023-04-24T00:46:05;99910.28;;;17.80;57.73
56504;BME280;48812;51.606;-0.114;2023-04-24T00:48:39;99920.13;;;17.79;57.57
56504;BME280;48812;51.606;-0.114;2023-04-24T00:51:12;99930.09;;;17.77;57.45
56504;BME280;48812;51.606;-0.114;2023-04-24T00:53:44;99935.44;;;17.77;58.39
56504;BME280;48812;51.606;-0.114;2023-04-24T00:56:16;99931.91;;;17.77;57.63
56504;BME280;48812;51.606;-0.114;2023-04-24T00:58:50;99939.13;;;17.75;57.42
56504;BME280;48812;51.606;-0.114;2023-04-24T01:01:22;99933.78;;;17.75;57.92
56504;BME280;48812;51.606;-0.114;2023-04-24T01:03:55;99932.09;;;17.74;57.92
56504;BME280;48812;51.606;-0.114;2023-04-24T01:06:29;99927.69;;;17.73;57.61
56504;BME280;48812;51.606;-0.114;2023-04-24T01:09:03;99923.28;;;17.72;57.59
56504;BME280;48812;51.606;-0.114;2023-04-24T01:11:36;99930.53;;;17.69;58.07
56504;BME280;48812;51.606;-0.114;2023-04-24T01:14:09;99941.22;;;17.69;58.39
56504;BME280;48812;51.606;-0.114;2023-04-24T01:16:42;99940.38;;;17.69;57.57
56504;BME280;48812;51.606;-0.114;2023-04-24T01:19:14;99942.22;;;17.68;57.47
56504;BME280;48812;51.606;-0.114;2023-04-24T01:21:47;99947.66;;;17.67;58.23
56504;BME280;48812;51.606;-0.114;2023-04-24T01:24:19;99941.41;;;17.66;57.99
56504;BME280;48812;51.606;-0.114;2023-04-24T01:26:51;99951.34;;;17.64;58.26
56504;BME280;48812;51.606;-0.114;2023-04-24T01:29:25;99954.03;;;17.64;57.48
56504;BME280;48812;51.606;-0.114;2023-04-24T01:31:57;99960.31;;;17.63;57.77
56504;BME280;48812;51.606;-0.114;2023-04-24T01:34:30;99961.28;;;17.62;58.13
56504;BME280;48812;51.606;-0.114;2023-04-24T01:37:02;99953.34;;;17.61;58.00
56504;BME280;48812;51.606;-0.114;2023-04-24T01:39:35;99949.94;;;17.59;58.48
56504;BME280;48812;51.606;-0.114;2023-04-24T01:42:07;99940.09;;;17.59;57.93
56504;BME280;48812;51.606;-0.114;2023-04-24T01:44:40;99938.34;;;17.58;57.94
56504;BME280;48812;51.606;-0.114;2023-04-24T01:47:13;99934.81;;;17.58;57.62
56504;BME280;48812;51.606;-0.114;2023-04-24T01:49:46;99938.44;;;17.57;57.48
56504;BME280;48812;51.606;-0.114;2023-04-24T01:52:20;99933.19;;;17.55;58.11
56504;BME280;48812;51.606;-0.114;2023-04-24T01:54:54;99928.81;;;17.54;58.19
56504;BME280;48812;51.606;-0.114;2023-04-24T01:57:28;99936.84;;;17.54;58.29
56504;BME280;48812;51.606;-0.114;2023-04-24T02:00:02;99935.09;;;17.53;57.84
56504;BME280;48812;51.606;-0.114;2023-04-24T02:02:44;99935.09;;;17.53;57.66
56504;BME280;48812;51.606;-0.114;2023-04-24T02:05:19;99944.09;;;17.52;57.67
56504;BME280;48812;51.606;-0.114;2023-04-24T02:07:51;99944.19;;;17.50;58.13
56504;BME280;48812;51.606;-0.114;2023-04-24T02:10:23;99954.00;;;17.50;58.15
56504;BME280;48812;51.606;-0.114;2023-04-24T02:12:57;99967.34;;;17.50;57.78
56504;BME280;48812;51.606;-0.114;2023-04-24T02:15:31;99966.59;;;17.48;57.94
56504;BME280;48812;51.606;-0.114;2023-04-24T02:18:04;99970.13;;;17.48;58.55
56504;BME280;48812;51.606;-0.114;2023-04-24T02:20:38;99967.53;;;17.47;57.80
56504;BME280;48812;51.606;-0.114;2023-04-24T02:23:10;99967.53;;;17.47;58.01
56504;BME280;48812;51.606;-0.114;2023-04-24T02:25:43;99967.53;;;17.47;58.09
56504;BME280;48812;51.606;-0.114;2023-04-24T02:28:16;99971.19;;;17.46;58.26
56504;BME280;48812;51.606;-0.114;2023-04-24T02:30:48;99966.78;;;17.45;57.98
56504;BME280;48812;51.606;-0.114;2023-04-24T02:33:20;99969.44;;;17.45;57.62
56504;BME280;48812;51.606;-0.114;2023-04-24T02:35:53;99970.41;;;17.44;57.49
56504;BME280;48812;51.606;-0.114;2023-04-24T02:38:25;99974.97;;;17.42;58.12
56504;BME280;48812;51.606;-0.114;2023-04-24T02:40:57;99969.63;;;17.42;57.62
56504;BME280;48812;51.606;-0.114;2023-04-24T02:43:30;99967.94;;;17.41;58.10
56504;BME280;48812;51.606;-0.114;2023-04-24T02:46:03;99971.53;;;17.40;58.32
56504;BME280;48812;51.606;-0.114;2023-04-24T02:48:35;99972.47;;;17.39;57.65
56504;BME280;48812;51.606;-0.114;2023-04-24T02:51:07;99979.63;;;17.38;58.13
56504;BME280;48812;51.606;-0.114;2023-04-24T02:53:40;99984.13;;;17.38;57.92
56504;BME280;48812;51.606;-0.114;2023-04-24T02:56:12;99993.97;;;17.37;58.09
56504;BME280;48812;51.606;-0.114;2023-04-24T02:58:45;99996.72;;;17.36;58.11
56504;BME280;48812;51.606;-0.114;2023-04-24T03:01:17;99999.41;;;17.36;57.67
56504;BME280;48812;51.606;-0.114;2023-04-24T03:03:50;100000.34;;;17.35;58.45
56504;BME280;48812;51.606;-0.114;2023-04-24T03:06:22;100003.94;;;17.33;58.48
56504;BME280;48812;51.606;-0.114;2023-04-24T03:08:54;100015.63;;;17.32;58.61
56504;BME280;48812;51.606;-0.114;2023-04-24T03:11:27;100013.88;;;17.31;58.41
56504;BME280;48812;51.606;-0.114;2023-04-24T03:13:59;100022.84;;;17.30;58.46
56504;BME280;48812;51.606;-0.114;2023-04-24T03:16:31;100021.91;;;17.31;57.94
56504;BME280;48812;51.606;-0.114;2023-04-24T03:19:05;100022.94;;;17.29;57.93
56504;BME280;48812;51.606;-0.114;2023-04-24T03:21:47;100027.41;;;17.28;57.83
56504;BME280;48812;51.606;-0.114;2023-04-24T03:24:19;100032.75;;;17.28;58.13
56504;BME280;48812;51.606;-0.114;2023-04-24T03:26:53;100031.06;;;17.27;57.72
56504;BME280;48812;51.606;-0.114;2023-04-24T03:29:57;100034.66;;;17.26;57.92
56504;BME280;48812;51.606;-0.114;2023-04-24T03:32:59;100031.19;;;17.24;58.50
56504;BME280;48812;51.606;-0.114;2023-04-24T03:35:36;100034.81;;;17.23;58.51
56504;BME280;48812;51.606;-0.114;2023-04-24T03:38:13;100033.06;;;17.22;58.05
56504;BME280;48812;51.606;-0.114;2023-04-24T03:41:02;100042.91;;;17.22;57.92
56504;BME280;48812;51.606;-0.114;2023-04-24T03:43:43;100046.53;;;17.21;58.04
56504;BME280;48812;51.606;-0.114;2023-04-24T03:46:15;100040.31;;;17.20;58.27
56504;BME280;48812;51.606;-0.114;2023-04-24T03:49:06;100052.06;;;17.18;57.98
56504;BME280;48812;51.606;-0.114;2023-04-24T03:51:42;100058.25;;;17.18;58.59
56504;BME280;48812;51.606;-0.114;2023-04-24T03:54:40;100052.16;;;17.16;58.05
56504;BME280;48812;51.606;-0.114;2023-04-24T03:57:13;100063.69;;;17.17;58.36
56504;BME280;48812;51.606;-0.114;2023-04-24T03:59:55;100062.03;;;17.14;57.95
56504;BME280;48812;51.606;-0.114;2023-04-24T04:02:29;100072.72;;;17.14;57.60
56504;BME280;48812;51.606;-0.114;2023-04-24T04:05:02;100071.00;;;17.13;58.43
56504;BME280;48812;51.606;-0.114;2023-04-24T04:07:36;100066.59;;;17.12;58.46
56504;BME280;48812;51.606;-0.114;2023-04-24T04:10:08;100070.25;;;17.11;57.97
56504;BME280;48812;51.606;-0.114;2023-04-24T04:12:41;100075.59;;;17.11;58.33
56504;BME280;48812;51.606;-0.114;2023-04-24T04:15:14;100083.69;;;17.09;57.80
56504;BME280;48812;51.606;-0.114;2023-04-24T04:17:47;100075.75;;;17.08;58.37
56504;BME280;48812;51.606;-0.114;2023-04-24T04:20:19;100083.78;;;17.08;57.83
56504;BME280;48812;51.606;-0.114;2023-04-24T04:22:52;100077.63;;;17.06;57.86
56504;BME280;48812;51.606;-0.114;2023-04-24T04:25:32;100099.88;;;17.06;57.81
56504;BME280;48812;51.606;-0.114;2023-04-24T04:28:04;100094.63;;;17.05;58.19
56504;BME280;48812;51.606;-0.114;2023-04-24T04:30:38;100100.91;;;17.04;58.40
56504;BME280;48812;51.606;-0.114;2023-04-24T04:33:20;100103.56;;;17.04;58.24
56504;BME280;48812;51.606;-0.114;2023-04-24T04:35:53;100112.56;;;17.03;57.87
56504;BME280;48812;51.606;-0.114;2023-04-24T04:38:27;100121.50;;;17.02;57.88
56504;BME280;48812;51.606;-0.114;2023-04-24T04:41:09;100121.50;;;17.02;58.27
56504;BME280;48812;51.606;-0.114;2023-04-24T04:43:42;100122.44;;;17.01;58.00
56504;BME280;48812;51.606;-0.114;2023-04-24T04:46:15;100130.53;;;16.99;57.91
56504;BME280;48812;51.606;-0.114;2023-04-24T04:49:10;100128.81;;;16.98;57.72
56504;BME280;48812;51.606;-0.114;2023-04-24T04:51:43;100135.94;;;16.98;57.81
56504;BME280;48812;51.606;-0.114;2023-04-24T04:54:15;100135.09;;;16.97;57.78
56504;BME280;48812;51.606;-0.114;2023-04-24T04:56:49;100132.50;;;16.95;57.92
56504;BME280;48812;51.606;-0.114;2023-04-24T04:59:22;100146.84;;;16.94;58.34
56504;BME280;48812;51.606;-0.114;2023-04-24T05:02:00;100141.50;;;16.94;58.00
56504;BME280;48812;51.606;-0.114;2023-04-24T05:04:34;100150.44;;;16.93;57.77
56504;BME280;48812;51.606;-0.114;2023-04-24T05:07:07;100155.84;;;16.92;58.33
56504;BME280;48812;51.606;-0.114;2023-04-24T05:09:43;100166.53;;;16.92;57.67
56504;BME280;48812;51.606;-0.114;2023-04-24T05:12:17;100171.97;;;16.90;57.83
56504;BME280;48812;51.606;-0.114;2023-04-24T05:14:55;100167.47;;;16.91;58.09
56504;BME280;48812;51.606;-0.114;2023-04-24T05:17:27;100171.09;;;16.90;58.17
56504;BME280;48812;51.606;-0.114;2023-04-24T05:20:01;100186.25;;;16.89;57.95
56504;BME280;48812;51.606;-0.114;2023-04-24T05:22:36;100183.69;;;16.88;57.88
56504;BME280;48812;51.606;-0.114;2023-04-24T05:25:08;100183.69;;;16.88;57.71
56504;BME280;48812;51.606;-0.114;2023-04-24T05:27:45;100200.63;;;16.87;58.33
56504;BME280;48812;51.606;-0.114;2023-04-24T05:30:20;100195.38;;;16.85;57.98
56504;BME280;48812;51.606;-0.114;2023-04-24T05:32:54;100204.31;;;16.84;57.73
56504;BME280;48812;51.606;-0.114;2023-04-24T05:35:27;100209.66;;;16.84;57.70
56504;BME280;48812;51.606;-0.114;2023-04-24T05:38:00;100201.66;;;16.84;58.30
56504;BME280;48812;51.606;-0.114;2023-04-24T05:40:33;100197.28;;;16.83;57.83
56504;BME280;48812;51.606;-0.114;2023-04-24T05:43:05;100199.94;;;16.83;57.65
56504;BME280;48812;51.606;-0.114;2023-04-24T05:45:38;100202.63;;;16.83;57.84
56504;BME280;48812;51.606;-0.114;2023-04-24T05:48:10;100201.66;;;16.84;57.85
56504;BME280;48812;51.606;-0.114;2023-04-24T05:50:42;100211.41;;;16.85;57.92
56504;BME280;48812;51.606;-0.114;2023-04-24T05:53:16;100211.41;;;16.85;57.71
56504;BME280;48812;51.606;-0.114;2023-04-24T05:55:48;100213.13;;;16.86;57.61
56504;BME280;48812;51.606;-0.114;2023-04-24T05:58:21;100220.19;;;16.87;57.88
56504;BME280;48812;51.606;-0.114;2023-04-24T06:00:54;100223.75;;;16.88;57.72
56504;BME280;48812;51.606;-0.114;2023-04-24T06:03:27;100230.69;;;16.90;57.79
56504;BME280;48812;51.606;-0.114;2023-04-24T06:05:59;100231.47;;;16.92;57.78
56504;BME280;48812;51.606;-0.114;2023-04-24T06:08:32;100226.94;;;16.94;58.44
56504;BME280;48812;51.606;-0.114;2023-04-24T06:11:05;100233.06;;;16.96;58.20
56504;BME280;48812;51.606;-0.114;2023-04-24T06:13:38;100229.34;;;16.99;58.45
56504;BME280;48812;51.606;-0.114;2023-04-24T06:16:41;100228.31;;;17.02;57.84
56504;BME280;48812;51.606;-0.114;2023-04-24T06:19:29;100228.16;;;17.05;57.85
56504;BME280;48812;51.606;-0.114;2023-04-24T06:22:02;100220.94;;;17.07;58.20
56504;BME280;48812;51.606;-0.114;2023-04-24T06:24:35;100229.72;;;17.09;57.84
56504;BME280;48812;51.606;-0.114;2023-04-24T06:27:07;100223.28;;;17.13;57.86
56504;BME280;48812;51.606;-0.114;2023-04-24T06:29:40;100230.25;;;17.15;58.18
56504;BME280;48812;51.606;-0.114;2023-04-24T06:32:13;100228.38;;;17.18;58.48
56504;BME280;48812;51.606;-0.114;2023-04-24T06:34:46;100239.75;;;17.21;58.43
56504;BME280;48812;51.606;-0.114;2023-04-24T06:37:18;100238.69;;;17.24;57.91
56504;BME280;48812;51.606;-0.114;2023-04-24T06:39:50;100242.22;;;17.26;58.52
56504;BME280;48812;51.606;-0.114;2023-04-24T06:42:23;100242.13;;;17.27;58.47
56504;BME280;48812;51.606;-0.114;2023-04-24T06:44:56;100244.59;;;17.30;58.25
56504;BME280;48812;51.606;-0.114;2023-04-24T06:47:29;100235.66;;;17.31;58.37
56504;BME280;48812;51.606;-0.114;2023-04-24T06:50:01;100233.75;;;17.33;58.57
56504;BME280;48812;51.606;-0.114;2023-04-24T06:52:36;100246.19;;;17.35;58.82
56504;BME280;48812;51.606;-0.114;2023-04-24T06:55:09;100250.59;;;17.36;58.10
56504;BME280;48812;51.606;-0.114;2023-04-24T06:57:44;100262.03;;;17.38;57.85
56504;BME280;48812;51.606;-0.114;2023-04-24T07:00:16;100258.41;;;17.39;58.57
56504;BME280;48812;51.606;-0.114;2023-04-24T07:02:48;100259.28;;;17.39;58.52
56504;BME280;48812;51.606;-0.114;2023-04-24T07:05:21;100256.53;;;17.41;58.43
56504;BME280;48812;51.606;-0.114;2023-04-24T07:07:53;100252.91;;;17.42;57.88
56504;BME280;48812;51.606;-0.114;2023-04-24T07:10:30;100256.38;;;17.44;58.40
56504;BME280;48812;51.606;-0.114;2023-04-24T07:13:02;100265.16;;;17.46;58.34
56504;BME280;48812;51.606;-0.114;2023-04-24T07:15:34;100258.00;;;17.46;58.90
56504;BME280;48812;51.606;-0.114;2023-04-24T07:18:06;100258.75;;;17.48;58.07
56504;BME280;48812;51.606;-0.114;2023-04-24T07:20:40;100255.16;;;17.49;58.34
56504;BME280;48812;51.606;-0.114;2023-04-24T07:23:13;100259.47;;;17.52;58.82
56504;BME280;48812;51.606;-0.114;2023-04-24T07:25:47;100264.75;;;17.54;58.39
56504;BME280;48812;51.606;-0.114;2023-04-24T07:28:19;100261.09;;;17.55;57.90
56504;BME280;48812;51.606;-0.114;2023-04-24T07:30:51;100267.31;;;17.55;58.34
56504;BME280;48812;51.606;-0.114;2023-04-24T07:33:27;100272.56;;;17.57;59.00
56504;BME280;48812;51.606;-0.114;2023-04-24T07:35:59;100267.22;;;17.57;58.70
56504;BME280;48812;51.606;-0.114;2023-04-24T07:38:32;100267.13;;;17.58;58.22
56504;BME280;48812;51.606;-0.114;2023-04-24T07:41:04;100272.47;;;17.58;58.38
56504;BME280;48812;51.606;-0.114;2023-04-24T07:43:36;100275.97;;;17.60;58.64
56504;BME280;48812;51.606;-0.114;2023-04-24T07:46:09;100275.88;;;17.62;58.13
56504;BME280;48812;51.606;-0.114;2023-04-24T07:48:42;100276.72;;;17.62;57.98
56504;BME280;48812;51.606;-0.114;2023-04-24T07:51:15;100284.66;;;17.64;58.48
56504;BME280;48812;51.606;-0.114;2023-04-24T07:53:47;100274.81;;;17.64;58.56
56504;BME280;48812;51.606;-0.114;2023-04-24T07:56:20;100269.47;;;17.64;58.00
56504;BME280;48812;51.606;-0.114;2023-04-24T07:58:52;100272.91;;;17.66;58.55
56504;BME280;48812;51.606;-0.114;2023-04-24T08:01:27;100274.66;;;17.67;58.54
56504;BME280;48812;51.606;-0.114;2023-04-24T08:04:00;100276.41;;;17.68;58.58
56504;BME280;48812;51.606;-0.114;2023-04-24T08:06:33;100277.25;;;17.69;58.14
56504;BME280;48812;51.606;-0.114;2023-04-24T08:09:05;100281.53;;;17.72;58.48
56504;BME280;48812;51.606;-0.114;2023-04-24T08:11:37;100282.44;;;17.72;58.73
56504;BME280;48812;51.606;-0.114;2023-04-24T08:14:10;100284.06;;;17.75;58.01
56504;BME280;48812;51.606;-0.114;2023-04-24T08:16:46;100283.13;;;17.76;58.81
56504;BME280;48812;51.606;-0.114;2023-04-24T08:19:18;100287.44;;;17.78;58.60
56504;BME280;48812;51.606;-0.114;2023-04-24T08:21:50;100290.00;;;17.80;58.23
56504;BME280;48812;51.606;-0.114;2023-04-24T08:24:22;100288.13;;;17.82;58.03
56504;BME280;48812;51.606;-0.114;2023-04-24T08:26:55;100289.84;;;17.83;58.70
56504;BME280;48812;51.606;-0.114;2023-04-24T08:29:29;100287.97;;;17.85;58.91
56504;BME280;48812;51.606;-0.114;2023-04-24T08:32:02;100285.19;;;17.86;58.54
56504;BME280;48812;51.606;-0.114;2023-04-24T08:34:34;100294.00;;;17.88;58.69
56504;BME280;48812;51.606;-0.114;2023-04-24T08:37:08;100300.19;;;17.89;59.04
56504;BME280;48812;51.606;-0.114;2023-04-24T08:39:40;100298.28;;;17.91;58.60
56504;BME280;48812;51.606;-0.114;2023-04-24T08:42:12;100295.53;;;17.93;58.63
56504;BME280;48812;51.606;-0.114;2023-04-24T08:44:47;100299.09;;;17.93;58.96
56504;BME280;48812;51.606;-0.114;2023-04-24T08:47:20;100303.47;;;17.94;58.74
56504;BME280;48812;51.606;-0.114;2023-04-24T08:49:56;100305.19;;;17.95;58.59
56504;BME280;48812;51.606;-0.114;2023-04-24T08:52:32;100304.22;;;17.96;58.54
56504;BME280;48812;51.606;-0.114;2023-04-24T08:55:04;100310.56;;;17.95;58.64
56504;BME280;48812;51.606;-0.114;2023-04-24T08:57:39;100313.22;;;17.95;58.28
56504;BME280;48812;51.606;-0.114;2023-04-24T09:00:12;100310.47;;;17.97;58.51
56504;BME280;48812;51.606;-0.114;2023-04-24T09:02:44;100311.41;;;17.96;58.70
56504;BME280;48812;51.606;-0.114;2023-04-24T09:05:19;100307.88;;;17.95;58.20
56504;BME280;48812;51.606;-0.114;2023-04-24T09:07:53;100315.06;;;17.95;58.21
56504;BME280;48812;51.606;-0.114;2023-04-24T09:10:27;100310.56;;;17.95;59.00
56504;BME280;48812;51.606;-0.114;2023-04-24T09:13:02;100315.91;;;17.95;59.06
56504;BME280;48812;51.606;-0.114;2023-04-24T09:15:34;100316.84;;;17.94;59.00
56504;BME280;48812;51.606;-0.114;2023-04-24T09:18:07;100316.84;;;17.94;58.45
56504;BME280;48812;51.606;-0.114;2023-04-24T09:23:31;100319.44;;;17.96;58.31
56504;BME280;48812;51.606;-0.114;2023-04-24T09:26:04;100327.47;;;17.96;58.20
56504;BME280;48812;51.606;-0.114;2023-04-24T09:28:39;100336.34;;;17.96;58.73
56504;BME280;48812;51.606;-0.114;2023-04-24T09:31:18;100333.66;;;17.96;58.52
56504;BME280;48812;51.606;-0.114;2023-04-24T09:33:54;100333.66;;;17.96;58.44
56504;BME280;48812;51.606;-0.114;2023-04-24T09:36:31;100331.88;;;17.97;58.36
56504;BME280;48812;51.606;-0.114;2023-04-24T09:39:12;100341.69;;;17.96;57.92
56504;BME280;48812;51.606;-0.114;2023-04-24T09:41:52;100344.34;;;17.96;58.22
56504;BME280;48812;51.606;-0.114;2023-04-24T09:44:25;100344.34;;;17.96;57.93
56504;BME280;48812;51.606;-0.114;2023-04-24T09:47:00;100362.31;;;17.94;57.70
56504;BME280;48812;51.606;-0.114;2023-04-24T09:49:33;100363.28;;;17.93;57.96
56504;BME280;48812;51.606;-0.114;2023-04-24T09:52:08;100359.72;;;17.93;58.57
56504;BME280;48812;51.606;-0.114;2023-04-24T09:54:40;100366.13;;;17.90;58.02
56504;BME280;48812;51.606;-0.114;2023-04-24T09:57:15;100370.59;;;17.90;58.30
56504;BME280;48812;51.606;-0.114;2023-04-24T09:59:50;100380.50;;;17.87;58.54
56504;BME280;48812;51.606;-0.114;2023-04-24T10:02:24;100378.88;;;17.85;57.82
56504;BME280;48812;51.606;-0.114;2023-04-24T10:04:57;100375.41;;;17.83;57.85
56504;BME280;48812;51.606;-0.114;2023-04-24T10:07:33;100382.66;;;17.81;57.73
56504;BME280;48812;51.606;-0.114;2023-04-24T10:10:05;100386.28;;;17.80;57.74
56504;BME280;48812;51.606;-0.114;2023-04-24T10:12:38;100389.13;;;17.77;57.81
56504;BME280;48812;51.606;-0.114;2023-04-24T10:15:11;100400.78;;;17.76;58.16
56504;BME280;48812;51.606;-0.114;2023-04-24T10:17:44;100396.44;;;17.73;57.85
56504;BME280;48812;51.606;-0.114;2023-04-24T10:20:17;100401.88;;;17.72;58.05
56504;BME280;48812;51.606;-0.114;2023-04-24T10:22:51;100400.16;;;17.71;57.73
56504;BME280;48812;51.606;-0.114;2023-04-24T10:25:26;100397.47;;;17.71;57.75
56504;BME280;48812;51.606;-0.114;2023-04-24T10:27:59;100393.06;;;17.69;57.75
56504;BME280;48812;51.606;-0.114;2023-04-24T10:30:33;100388.69;;;17.68;57.57
56504;BME280;48812;51.606;-0.114;2023-04-24T10:33:07;100404.72;;;17.68;57.69
56504;BME280;48812;51.606;-0.114;2023-04-24T10:35:44;100403.00;;;17.67;57.47
56504;BME280;48812;51.606;-0.114;2023-04-24T10:38:23;100400.41;;;17.66;57.81
56504;BME280;48812;51.606;-0.114;2023-04-24T10:41:06;100407.56;;;17.65;57.56
56504;BME280;48812;51.606;-0.114;2023-04-24T10:43:40;100413.00;;;17.64;57.96
56504;BME280;48812;51.606;-0.114;2023-04-24T10:46:16;100402.38;;;17.62;58.00
56504;BME280;48812;51.606;-0.114;2023-04-24T10:48:53;100396.19;;;17.62;57.46
56504;BME280;48812;51.606;-0.114;2023-04-24T10:51:49;100397.97;;;17.61;58.12
56504;BME280;48812;51.606;-0.114;2023-04-24T10:54:24;100397.19;;;17.59;57.95
56504;BME280;48812;51.606;-0.114;2023-04-24T10:57:39;100399.88;;;17.59;58.00
56504;BME280;48812;51.606;-0.114;2023-04-24T11:00:26;100405.22;;;17.59;58.17
56504;BME280;48812;51.606;-0.114;2023-04-24T11:02:59;100399.00;;;17.59;57.48
56504;BME280;48812;51.606;-0.114;2023-04-24T11:05:51;100399.00;;;17.59;57.55
56504;BME280;48812;51.606;-0.114;2023-04-24T11:09:01;100387.44;;;17.58;58.18
56504;BME280;48812;51.606;-0.114;2023-04-24T11:11:25;100393.59;;;17.60;57.99
56504;BME280;48812;51.606;-0.114;2023-04-24T11:16:36;100400.63;;;17.61;57.30
56504;BME280;48812;51.606;-0.114;2023-04-24T11:26:56;100409.28;;;17.66;57.69
56504;BME280;48812;51.606;-0.114;2023-04-24T11:29:39;100409.19;;;17.68;57.27
56504;BME280;48812;51.606;-0.114;2023-04-24T11:32:15;100416.28;;;17.69;57.31
56504;BME280;48812;51.606;-0.114;2023-04-24T11:34:51;100422.41;;;17.71;58.05
56504;BME280;48812;51.606;-0.114;2023-04-24T11:37:26;100406.44;;;17.69;57.33
56504;BME280;48812;51.606;-0.114;2023-04-24T11:39:58;100425.16;;;17.69;58.11
56504;BME280;48812;51.606;-0.114;2023-04-24T11:42:34;100435.84;;;17.69;58.20
56504;BME280;48812;51.606;-0.114;2023-04-24T11:45:14;100434.22;;;17.67;57.33
56504;BME280;48812;51.606;-0.114;2023-04-24T11:47:46;100433.34;;;17.66;57.56
56504;BME280;48812;51.606;-0.114;2023-04-24T11:50:20;100431.63;;;17.65;57.21
56504;BME280;48812;51.606;-0.114;2023-04-24T11:52:54;100428.16;;;17.63;58.25
56504;BME280;48812;51.606;-0.114;2023-04-24T11:55:28;100431.78;;;17.62;57.32
56504;BME280;48812;51.606;-0.114;2023-04-24T11:58:00;100434.53;;;17.61;57.27
56504;BME280;48812;51.606;-0.114;2023-04-24T12:00:34;100437.28;;;17.59;57.75
56504;BME280;48812;51.606;-0.114;2023-04-24T12:03:08;100427.53;;;17.58;57.44
56504;BME280;48812;51.606;-0.114;2023-04-24T12:05:41;100430.22;;;17.58;57.61
56504;BME280;48812;51.606;-0.114;2023-04-24T12:08:27;100435.56;;;17.58;57.68
56504;BME280;48812;51.606;-0.114;2023-04-24T12:11:00;100438.22;;;17.58;57.81
56504;BME280;48812;51.606;-0.114;2023-04-24T12:13:34;100425.81;;;17.57;57.56
56504;BME280;48812;51.606;-0.114;2023-04-24T12:16:07;100423.94;;;17.59;57.92
56504;BME280;48812;51.606;-0.114;2023-04-24T12:18:42;100421.25;;;17.59;57.33
56504;BME280;48812;51.606;-0.114;2023-04-24T12:21:16;100418.50;;;17.61;57.81
56504;BME280;48812;51.606;-0.114;2023-04-24T12:23:54;100421.09;;;17.62;57.07
56504;BME280;48812;51.606;-0.114;2023-04-24T12:26:27;100414.78;;;17.63;57.46
56504;BME280;48812;51.606;-0.114;2023-04-24T12:29:01;100414.69;;;17.65;57.73
56504;BME280;48812;51.606;-0.114;2023-04-24T12:31:34;100409.28;;;17.66;57.54
56504;BME280;48812;51.606;-0.114;2023-04-24T12:34:21;100411.94;;;17.66;57.23
56504;BME280;48812;51.606;-0.114;2023-04-24T12:36:53;100408.34;;;17.67;57.32
56504;BME280;48812;51.606;-0.114;2023-04-24T12:39:25;100411.78;;;17.69;57.35
56504;BME280;48812;51.606;-0.114;2023-04-24T12:41:58;100409.88;;;17.72;57.50
56504;BME280;48812;51.606;-0.114;2023-04-24T12:44:34;100406.28;;;17.73;57.41
56504;BME280;48812;51.606;-0.114;2023-04-24T12:47:07;100399.03;;;17.75;57.01
56504;BME280;48812;51.606;-0.114;2023-04-24T12:49:41;100402.50;;;17.77;56.96
56504;BME280;48812;51.606;-0.114;2023-04-24T12:52:14;100396.09;;;17.79;57.71
56504;BME280;48812;51.606;-0.114;2023-04-24T12:54:47;100392.41;;;17.82;57.62
56504;BME280;48812;51.606;-0.114;2023-04-24T12:57:22;100394.03;;;17.84;57.05
56504;BME280;48812;51.606;-0.114;2023-04-24T12:59:54;100392.19;;;17.86;57.10
56504;BME280;48812;51.606;-0.114;2023-04-24T13:02:28;100382.16;;;17.90;56.71
56504;BME280;48812;51.606;-0.114;2023-04-24T13:05:02;100382.94;;;17.92;57.32
56504;BME280;48812;51.606;-0.114;2023-04-24T13:07:34;100389.06;;;17.94;57.27
56504;BME280;48812;51.606;-0.114;2023-04-24T13:10:07;100389.94;;;17.95;57.13
56504;BME280;48812;51.606;-0.114;2023-04-24T13:12:39;100387.28;;;17.95;56.95
56504;BME280;48812;51.606;-0.114;2023-04-24T13:15:13;100387.34;;;17.93;56.71
56504;BME280;48812;51.606;-0.114;2023-04-24T13:17:45;100382.94;;;17.92;56.50
56504;BME280;48812;51.606;-0.114;2023-04-24T13:20:18;100384.84;;;17.90;57.20
56504;BME280;48812;51.606;-0.114;2023-04-24T13:22:50;100382.16;;;17.90;56.65
56504;BME280;48812;51.606;-0.114;2023-04-24T13:25:22;100387.50;;;17.90;56.53
56504;BME280;48812;51.606;-0.114;2023-04-24T13:27:56;100387.50;;;17.90;56.89
56504;BME280;48812;51.606;-0.114;2023-04-24T13:30:29;100389.22;;;17.91;56.63
56504;BME280;48812;51.606;-0.114;2023-04-24T13:33:01;100388.13;;;17.95;56.95